createdAt,value
2018-12-15T00:00:07.061Z,929.87
2018-12-15T00:00:20.068Z,929.86
2018-12-15T00:00:32.970Z,929.87
2018-12-15T00:00:45.913Z,929.88
2018-12-15T00:00:58.854Z,929.88
2018-12-15T00:01:11.819Z,929.91
2018-12-15T00:01:24.776Z,929.9
2018-12-15T00:01:37.738Z,929.91
2018-12-15T00:01:50.720Z,929.91
2018-12-15T00:02:03.621Z,929.95
2018-12-15T00:02:16.596Z,929.92
2018-12-15T00:02:29.515Z,929.95
2018-12-15T00:02:42.429Z,929.94
2018-12-15T00:02:55.351Z,929.95
2018-12-15T00:03:08.260Z,929.96
2018-12-15T00:03:20.752Z,929.96
2018-12-15T00:03:33.706Z,929.98
2018-12-15T00:03:46.679Z,929.95
2018-12-15T00:03:59.628Z,929.97
2018-12-15T00:04:12.633Z,929.99
2018-12-15T00:04:25.626Z,930.01
2018-12-15T00:04:38.120Z,930.01
2018-12-15T00:04:51.110Z,930.01
2018-12-15T00:05:04.026Z,929.98
2018-12-15T00:05:16.971Z,930.01
2018-12-15T00:05:29.887Z,930
2018-12-15T00:05:43.142Z,930.04
2018-12-15T00:05:56.147Z,930.06
2018-12-15T00:06:08.604Z,930.04
2018-12-15T00:06:21.561Z,930.03
2018-12-15T00:06:34.496Z,930.04
2018-12-15T00:06:47.429Z,930.05
2018-12-15T00:07:00.349Z,930.05
2018-12-15T00:07:13.288Z,930.04
2018-12-15T00:07:26.229Z,930.06
2018-12-15T00:07:39.164Z,930.06
2018-12-15T00:07:52.127Z,930.07
2018-12-15T00:08:05.093Z,930.09
2018-12-15T00:08:18.109Z,930.13
2018-12-15T00:08:31.056Z,930.1
2018-12-15T00:08:44.046Z,930.14
2018-12-15T00:08:56.930Z,930.07
2018-12-15T00:09:09.871Z,930.1
2018-12-15T00:09:22.854Z,930.13
2018-12-15T00:09:35.858Z,930.11
2018-12-15T00:09:48.804Z,930.15
2018-12-15T00:10:01.777Z,930.13
2018-12-15T00:10:14.743Z,930.2
2018-12-15T00:10:27.692Z,930.17
2018-12-15T00:10:40.629Z,930.17
2018-12-15T00:10:53.792Z,930.2
2018-12-15T00:11:06.765Z,930.19
2018-12-15T00:11:19.717Z,930.22
2018-12-15T00:11:32.653Z,930.22
2018-12-15T00:11:45.559Z,930.22
2018-12-15T00:11:58.071Z,930.24
2018-12-15T00:12:10.998Z,930.23
2018-12-15T00:12:23.937Z,930.25
2018-12-15T00:12:36.405Z,930.25
2018-12-15T00:12:49.317Z,930.24
2018-12-15T00:13:02.269Z,930.27
2018-12-15T00:13:15.177Z,930.24
2018-12-15T00:13:28.114Z,930.25
2018-12-15T00:13:41.059Z,930.25
2018-12-15T00:13:54.034Z,930.24
2018-12-15T00:14:06.976Z,930.26
2018-12-15T00:14:19.959Z,930.25
2018-12-15T00:14:32.868Z,930.28
2018-12-15T00:14:45.788Z,930.27
2018-12-15T00:14:58.692Z,930.28
2018-12-15T00:15:11.628Z,930.29
2018-12-15T00:15:24.632Z,930.3
2018-12-15T00:15:37.574Z,930.26
2018-12-15T00:15:50.558Z,930.27
2018-12-15T00:16:03.473Z,930.24
2018-12-15T00:16:16.358Z,930.27
2018-12-15T00:16:29.317Z,930.25
2018-12-15T00:16:42.262Z,930.28
2018-12-15T00:16:55.294Z,930.27
2018-12-15T00:17:12.771Z,930.25
2018-12-15T00:17:25.722Z,930.25
2018-12-15T00:17:38.198Z,930.24
2018-12-15T00:17:51.140Z,930.26
2018-12-15T00:18:04.061Z,930.26
2018-12-15T00:18:16.997Z,930.28
2018-12-15T00:18:29.889Z,930.26
2018-12-15T00:18:42.787Z,930.29
2018-12-15T00:18:55.747Z,930.28
2018-12-15T00:19:08.689Z,930.29
2018-12-15T00:19:21.190Z,930.27
2018-12-15T00:19:34.111Z,930.29
2018-12-15T00:19:46.998Z,930.28
2018-12-15T00:19:59.943Z,930.28
2018-12-15T00:20:12.859Z,930.3
2018-12-15T00:20:25.855Z,930.32
2018-12-15T00:20:38.813Z,930.31
2018-12-15T00:20:51.730Z,930.25
2018-12-15T00:21:04.687Z,930.31
2018-12-15T00:21:17.660Z,930.3
2018-12-15T00:21:30.602Z,930.27
2018-12-15T00:21:43.558Z,930.32
2018-12-15T00:21:56.492Z,930.31
2018-12-15T00:22:09.489Z,930.29
2018-12-15T00:22:22.425Z,930.32
2018-12-15T00:22:35.348Z,930.29
2018-12-15T00:22:48.326Z,930.32
2018-12-15T00:23:01.307Z,930.31
2018-12-15T00:23:14.254Z,930.3
2018-12-15T00:23:27.177Z,930.29
2018-12-15T00:23:40.064Z,930.28
2018-12-15T00:23:53.020Z,930.3
2018-12-15T00:24:05.935Z,930.29
2018-12-15T00:24:18.881Z,930.3
2018-12-15T00:24:31.823Z,930.3
2018-12-15T00:24:44.790Z,930.31
2018-12-15T00:24:57.755Z,930.29
2018-12-15T00:25:10.727Z,930.26
2018-12-15T00:25:23.741Z,930.3
2018-12-15T00:25:36.747Z,930.29
2018-12-15T00:25:50.476Z,930.29
2018-12-15T00:26:03.411Z,930.28
2018-12-15T00:26:16.419Z,930.29
2018-12-15T00:26:29.366Z,930.27
2018-12-15T00:26:42.336Z,930.27
2018-12-15T00:26:55.269Z,930.28
2018-12-15T00:27:08.266Z,930.28
2018-12-15T00:27:21.213Z,930.28
2018-12-15T00:27:34.137Z,930.33
2018-12-15T00:27:47.109Z,930.3
2018-12-15T00:28:00.103Z,930.28
2018-12-15T00:28:13.035Z,930.29
2018-12-15T00:28:25.960Z,930.3
2018-12-15T00:28:38.926Z,930.3
2018-12-15T00:28:51.847Z,930.3
2018-12-15T00:29:04.812Z,930.31
2018-12-15T00:29:17.763Z,930.28
2018-12-15T00:29:30.689Z,930.29
2018-12-15T00:29:43.632Z,930.29
2018-12-15T00:29:56.605Z,930.28
2018-12-15T00:30:09.566Z,930.27
2018-12-15T00:30:22.524Z,930.28
2018-12-15T00:30:35.468Z,930.3
2018-12-15T00:30:48.409Z,930.3
2018-12-15T00:31:01.399Z,930.28
2018-12-15T00:31:14.344Z,930.28
2018-12-15T00:31:27.243Z,930.29
2018-12-15T00:31:40.301Z,930.28
2018-12-15T00:31:53.286Z,930.29
2018-12-15T00:32:06.235Z,930.27
2018-12-15T00:32:19.266Z,930.29
2018-12-15T00:32:32.209Z,930.28
2018-12-15T00:32:45.139Z,930.3
2018-12-15T00:32:58.085Z,930.3
2018-12-15T00:33:11.076Z,930.29
2018-12-15T00:33:24.086Z,930.29
2018-12-15T00:33:37.045Z,930.32
2018-12-15T00:33:50.079Z,930.34
2018-12-15T00:34:03.005Z,930.34
2018-12-15T00:34:15.942Z,930.33
2018-12-15T00:34:28.897Z,930.31
2018-12-15T00:34:41.824Z,930.32
2018-12-15T00:34:54.830Z,930.32
2018-12-15T00:35:07.759Z,930.32
2018-12-15T00:35:20.686Z,930.3
2018-12-15T00:35:33.702Z,930.28
2018-12-15T00:35:46.617Z,930.31
2018-12-15T00:35:59.838Z,930.29
2018-12-15T00:36:12.342Z,930.32
2018-12-15T00:36:25.286Z,930.35
2018-12-15T00:36:38.228Z,930.33
2018-12-15T00:36:51.204Z,930.3
2018-12-15T00:37:04.129Z,930.31
2018-12-15T00:37:16.679Z,930.29
2018-12-15T00:37:29.607Z,930.31
2018-12-15T00:37:42.600Z,930.28
2018-12-15T00:37:55.507Z,930.3
2018-12-15T00:38:08.485Z,930.31
2018-12-15T00:38:21.431Z,930.32
2018-12-15T00:38:34.387Z,930.31
2018-12-15T00:38:47.333Z,930.31
2018-12-15T00:39:00.223Z,930.31
2018-12-15T00:39:13.166Z,930.36
2018-12-15T00:39:25.641Z,930.33
2018-12-15T00:39:38.601Z,930.34
2018-12-15T00:39:51.560Z,930.32
2018-12-15T00:40:04.492Z,930.34
2018-12-15T00:40:17.465Z,930.32
2018-12-15T00:40:30.417Z,930.35
2018-12-15T00:40:43.350Z,930.35
2018-12-15T00:40:56.514Z,930.33
2018-12-15T00:41:09.460Z,930.35
2018-12-15T00:41:22.474Z,930.36
2018-12-15T00:41:35.471Z,930.34
2018-12-15T00:41:48.436Z,930.36
2018-12-15T00:42:00.883Z,930.36
2018-12-15T00:42:13.815Z,930.38
2018-12-15T00:42:26.756Z,930.4
2018-12-15T00:42:39.683Z,930.43
2018-12-15T00:42:52.689Z,930.41
2018-12-15T00:43:05.689Z,930.41
2018-12-15T00:43:18.601Z,930.4
2018-12-15T00:43:31.507Z,930.45
2018-12-15T00:43:44.488Z,930.44
2018-12-15T00:43:57.376Z,930.47
2018-12-15T00:44:10.319Z,930.42
2018-12-15T00:44:23.213Z,930.48
2018-12-15T00:44:36.144Z,930.48
2018-12-15T00:44:49.151Z,930.48
2018-12-15T00:45:02.088Z,930.45
2018-12-15T00:45:15.028Z,930.48
2018-12-15T00:45:27.968Z,930.51
2018-12-15T00:45:40.928Z,930.5
2018-12-15T00:45:53.877Z,930.51
2018-12-15T00:46:06.867Z,930.51
2018-12-15T00:46:19.845Z,930.48
2018-12-15T00:46:32.723Z,930.55
2018-12-15T00:46:45.676Z,930.55
2018-12-15T00:46:58.620Z,930.54
2018-12-15T00:47:17.414Z,930.54
2018-12-15T00:47:30.348Z,930.53
2018-12-15T00:47:43.311Z,930.54
2018-12-15T00:47:56.259Z,930.55
2018-12-15T00:48:09.245Z,930.55
2018-12-15T00:48:22.122Z,930.56
2018-12-15T00:48:35.056Z,930.56
2018-12-15T00:48:48.006Z,930.55
2018-12-15T00:49:00.972Z,930.55
2018-12-15T00:49:13.974Z,930.57
2018-12-15T00:49:26.935Z,930.56
2018-12-15T00:49:39.931Z,930.57
2018-12-15T00:49:52.878Z,930.57
2018-12-15T00:50:05.815Z,930.6
2018-12-15T00:50:18.337Z,930.58
2018-12-15T00:50:31.325Z,930.59
2018-12-15T00:50:44.274Z,930.52
2018-12-15T00:50:57.177Z,930.54
2018-12-15T00:51:10.208Z,930.61
2018-12-15T00:51:23.197Z,930.55
2018-12-15T00:51:36.214Z,930.58
2018-12-15T00:51:49.188Z,930.61
2018-12-15T00:52:02.109Z,930.57
2018-12-15T00:52:15.065Z,930.57
2018-12-15T00:52:28.018Z,930.59
2018-12-15T00:52:40.928Z,930.59
2018-12-15T00:52:53.860Z,930.58
2018-12-15T00:53:06.764Z,930.54
2018-12-15T00:53:19.648Z,930.58
2018-12-15T00:53:32.621Z,930.61
2018-12-15T00:53:45.656Z,930.57
2018-12-15T00:53:58.597Z,930.6
2018-12-15T00:54:11.588Z,930.58
2018-12-15T00:54:24.514Z,930.59
2018-12-15T00:54:37.477Z,930.57
2018-12-15T00:54:50.434Z,930.58
2018-12-15T00:55:03.344Z,930.58
2018-12-15T00:55:16.235Z,930.58
2018-12-15T00:55:29.144Z,930.58
2018-12-15T00:55:42.099Z,930.56
2018-12-15T00:55:55.101Z,930.59
2018-12-15T00:56:08.786Z,930.62
2018-12-15T00:56:21.731Z,930.6
2018-12-15T00:56:34.656Z,930.6
2018-12-15T00:56:47.571Z,930.62
2018-12-15T00:57:00.487Z,930.59
2018-12-15T00:57:13.416Z,930.62
2018-12-15T00:57:26.366Z,930.62
2018-12-15T00:57:39.289Z,930.6
2018-12-15T00:57:52.224Z,930.58
2018-12-15T00:58:05.213Z,930.6
2018-12-15T00:58:18.546Z,930.64
2018-12-15T00:58:31.447Z,930.62
2018-12-15T00:58:44.377Z,930.61
2018-12-15T00:58:56.812Z,930.63
2018-12-15T00:59:09.767Z,930.61
2018-12-15T00:59:22.683Z,930.61
2018-12-15T00:59:35.587Z,930.6
2018-12-15T00:59:48.621Z,930.57
2018-12-15T01:00:01.506Z,930.63
2018-12-15T01:00:14.480Z,930.58
2018-12-15T01:00:27.426Z,930.63
2018-12-15T01:00:40.370Z,930.59
2018-12-15T01:00:53.321Z,930.61
2018-12-15T01:01:06.315Z,930.6
2018-12-15T01:01:19.277Z,930.58
2018-12-15T01:01:32.220Z,930.62
2018-12-15T01:01:45.210Z,930.6
2018-12-15T01:01:58.146Z,930.62
2018-12-15T01:02:11.101Z,930.6
2018-12-15T01:02:24.104Z,930.65
2018-12-15T01:02:37.066Z,930.6
2018-12-15T01:02:49.984Z,930.6
2018-12-15T01:03:02.956Z,930.62
2018-12-15T01:03:15.923Z,930.61
2018-12-15T01:03:28.865Z,930.61
2018-12-15T01:03:41.793Z,930.63
2018-12-15T01:03:54.728Z,930.63
2018-12-15T01:04:07.250Z,930.58
2018-12-15T01:04:20.190Z,930.63
2018-12-15T01:04:33.198Z,930.59
2018-12-15T01:04:46.123Z,930.6
2018-12-15T01:04:59.099Z,930.64
2018-12-15T01:05:12.101Z,930.58
2018-12-15T01:05:25.119Z,930.63
2018-12-15T01:05:38.076Z,930.61
2018-12-15T01:05:50.580Z,930.65
2018-12-15T01:06:03.783Z,930.63
2018-12-15T01:06:16.793Z,930.64
2018-12-15T01:06:29.800Z,930.63
2018-12-15T01:06:42.768Z,930.64
2018-12-15T01:06:55.724Z,930.62
2018-12-15T01:07:08.717Z,930.63
2018-12-15T01:07:21.693Z,930.64
2018-12-15T01:07:36.321Z,930.6
2018-12-15T01:07:49.218Z,930.61
2018-12-15T01:08:02.220Z,930.64
2018-12-15T01:08:15.167Z,930.63
2018-12-15T01:08:28.171Z,930.66
2018-12-15T01:08:41.124Z,930.66
2018-12-15T01:08:54.072Z,930.64
2018-12-15T01:09:07.008Z,930.65
2018-12-15T01:09:19.030Z,930.62
2018-12-15T01:09:32.033Z,930.64
2018-12-15T01:09:45.017Z,930.65
2018-12-15T01:09:57.957Z,930.63
2018-12-15T01:10:10.925Z,930.62
2018-12-15T01:10:23.861Z,930.64
2018-12-15T01:10:36.840Z,930.61
2018-12-15T01:10:49.793Z,930.65
2018-12-15T01:11:02.737Z,930.61
2018-12-15T01:11:15.913Z,930.62
2018-12-15T01:11:28.843Z,930.59
2018-12-15T01:11:41.781Z,930.61
2018-12-15T01:11:54.692Z,930.65
2018-12-15T01:12:07.588Z,930.61
2018-12-15T01:12:20.528Z,930.63
2018-12-15T01:12:33.444Z,930.62
2018-12-15T01:12:46.364Z,930.64
2018-12-15T01:12:59.377Z,930.64
2018-12-15T01:13:12.277Z,930.61
2018-12-15T01:13:25.220Z,930.61
2018-12-15T01:13:38.192Z,930.65
2018-12-15T01:13:51.121Z,930.63
2018-12-15T01:14:04.074Z,930.66
2018-12-15T01:14:17.009Z,930.66
2018-12-15T01:14:29.950Z,930.62
2018-12-15T01:14:42.859Z,930.66
2018-12-15T01:14:55.786Z,930.67
2018-12-15T01:15:08.733Z,930.66
2018-12-15T01:15:21.716Z,930.65
2018-12-15T01:15:34.614Z,930.69
2018-12-15T01:15:47.533Z,930.69
2018-12-15T01:16:00.461Z,930.68
2018-12-15T01:16:13.382Z,930.67
2018-12-15T01:16:26.351Z,930.71
2018-12-15T01:16:39.301Z,930.68
2018-12-15T01:16:52.293Z,930.74
2018-12-15T01:17:05.229Z,930.73
2018-12-15T01:17:24.536Z,930.74
2018-12-15T01:17:37.516Z,930.73
2018-12-15T01:17:50.482Z,930.74
2018-12-15T01:18:03.395Z,930.75
2018-12-15T01:18:16.304Z,930.72
2018-12-15T01:18:29.262Z,930.76
2018-12-15T01:18:42.231Z,930.74
2018-12-15T01:18:55.145Z,930.75
2018-12-15T01:19:08.091Z,930.73
2018-12-15T01:19:21.037Z,930.74
2018-12-15T01:19:33.964Z,930.75
2018-12-15T01:19:46.925Z,930.74
2018-12-15T01:19:59.864Z,930.77
2018-12-15T01:20:12.823Z,930.74
2018-12-15T01:20:25.317Z,930.73
2018-12-15T01:20:38.289Z,930.76
2018-12-15T01:20:51.223Z,930.73
2018-12-15T01:21:04.184Z,930.79
2018-12-15T01:21:16.747Z,930.77
2018-12-15T01:21:29.667Z,930.76
2018-12-15T01:21:42.637Z,930.74
2018-12-15T01:21:55.600Z,930.77
2018-12-15T01:22:08.558Z,930.72
2018-12-15T01:22:21.500Z,930.76
2018-12-15T01:22:34.026Z,930.76
2018-12-15T01:22:46.969Z,930.75
2018-12-15T01:22:59.882Z,930.76
2018-12-15T01:23:12.804Z,930.73
2018-12-15T01:23:25.796Z,930.72
2018-12-15T01:23:38.717Z,930.73
2018-12-15T01:23:51.651Z,930.73
2018-12-15T01:24:04.572Z,930.73
2018-12-15T01:24:17.524Z,930.76
2018-12-15T01:24:30.479Z,930.76
2018-12-15T01:24:43.469Z,930.78
2018-12-15T01:24:56.404Z,930.78
2018-12-15T01:25:09.338Z,930.77
2018-12-15T01:25:21.853Z,930.78
2018-12-15T01:25:34.852Z,930.78
2018-12-15T01:25:47.810Z,930.76
2018-12-15T01:26:00.268Z,930.74
2018-12-15T01:26:13.952Z,930.76
2018-12-15T01:26:26.898Z,930.76
2018-12-15T01:26:39.860Z,930.78
2018-12-15T01:26:52.820Z,930.79
2018-12-15T01:27:05.786Z,930.79
2018-12-15T01:27:18.724Z,930.79
2018-12-15T01:27:31.699Z,930.79
2018-12-15T01:27:44.636Z,930.77
2018-12-15T01:27:57.648Z,930.79
2018-12-15T01:28:10.558Z,930.78
2018-12-15T01:28:23.544Z,930.8
2018-12-15T01:28:36.515Z,930.79
2018-12-15T01:28:49.473Z,930.79
2018-12-15T01:29:02.050Z,930.81
2018-12-15T01:29:15.019Z,930.78
2018-12-15T01:29:27.922Z,930.81
2018-12-15T01:29:40.962Z,930.78
2018-12-15T01:29:53.981Z,930.79
2018-12-15T01:30:06.919Z,930.79
2018-12-15T01:30:19.887Z,930.8
2018-12-15T01:30:32.891Z,930.81
2018-12-15T01:30:45.423Z,930.75
2018-12-15T01:30:58.329Z,930.78
2018-12-15T01:31:11.280Z,930.81
2018-12-15T01:31:24.252Z,930.81
2018-12-15T01:31:37.171Z,930.79
2018-12-15T01:31:50.159Z,930.79
2018-12-15T01:32:02.693Z,930.82
2018-12-15T01:32:15.663Z,930.8
2018-12-15T01:32:28.550Z,930.78
2018-12-15T01:32:41.482Z,930.82
2018-12-15T01:32:54.399Z,930.82
2018-12-15T01:33:07.278Z,930.82
2018-12-15T01:33:20.222Z,930.83
2018-12-15T01:33:33.167Z,930.81
2018-12-15T01:33:46.064Z,930.81
2018-12-15T01:33:59.039Z,930.81
2018-12-15T01:34:12.861Z,930.78
2018-12-15T01:34:25.750Z,930.77
2018-12-15T01:34:38.730Z,930.78
2018-12-15T01:34:51.633Z,930.8
2018-12-15T01:35:04.593Z,930.77
2018-12-15T01:35:17.490Z,930.77
2018-12-15T01:35:30.452Z,930.76
2018-12-15T01:35:43.421Z,930.77
2018-12-15T01:35:56.336Z,930.8
2018-12-15T01:36:09.296Z,930.79
2018-12-15T01:36:22.520Z,930.8
2018-12-15T01:36:35.436Z,930.8
2018-12-15T01:36:48.349Z,930.79
2018-12-15T01:37:01.279Z,930.76
2018-12-15T01:37:14.150Z,930.79
2018-12-15T01:37:27.113Z,930.77
2018-12-15T01:37:40.037Z,930.79
2018-12-15T01:37:52.964Z,930.79
2018-12-15T01:38:05.905Z,930.8
2018-12-15T01:38:18.816Z,930.75
2018-12-15T01:38:31.781Z,930.73
2018-12-15T01:38:44.756Z,930.75
2018-12-15T01:38:57.711Z,930.75
2018-12-15T01:39:10.662Z,930.76
2018-12-15T01:39:23.786Z,930.78
2018-12-15T01:39:36.796Z,930.73
2018-12-15T01:39:49.767Z,930.73
2018-12-15T01:40:02.742Z,930.76
2018-12-15T01:40:15.748Z,930.75
2018-12-15T01:40:28.669Z,930.77
2018-12-15T01:40:41.587Z,930.78
2018-12-15T01:40:54.518Z,930.77
2018-12-15T01:41:07.482Z,930.76
2018-12-15T01:41:21.437Z,930.74
2018-12-15T01:41:34.360Z,930.77
2018-12-15T01:41:47.250Z,930.77
2018-12-15T01:42:00.159Z,930.75
2018-12-15T01:42:13.162Z,930.76
2018-12-15T01:42:26.104Z,930.74
2018-12-15T01:42:39.036Z,930.74
2018-12-15T01:42:51.969Z,930.76
2018-12-15T01:43:04.935Z,930.74
2018-12-15T01:43:17.881Z,930.72
2018-12-15T01:43:30.830Z,930.72
2018-12-15T01:43:43.771Z,930.72
2018-12-15T01:43:56.717Z,930.71
2018-12-15T01:44:09.681Z,930.71
2018-12-15T01:44:22.684Z,930.71
2018-12-15T01:44:35.645Z,930.7
2018-12-15T01:44:48.560Z,930.69
2018-12-15T01:45:01.534Z,930.7
2018-12-15T01:45:14.456Z,930.7
2018-12-15T01:45:27.409Z,930.69
2018-12-15T01:45:40.380Z,930.72
2018-12-15T01:45:53.351Z,930.74
2018-12-15T01:46:06.291Z,930.73
2018-12-15T01:46:19.257Z,930.73
2018-12-15T01:46:32.307Z,930.68
2018-12-15T01:46:45.275Z,930.7
2018-12-15T01:46:58.195Z,930.71
2018-12-15T01:47:11.179Z,930.72
2018-12-15T01:47:28.067Z,930.72
2018-12-15T01:47:40.994Z,930.72
2018-12-15T01:47:53.934Z,930.72
2018-12-15T01:48:06.893Z,930.69
2018-12-15T01:48:19.839Z,930.68
2018-12-15T01:48:32.745Z,930.72
2018-12-15T01:48:45.772Z,930.71
2018-12-15T01:48:58.688Z,930.73
2018-12-15T01:49:11.653Z,930.69
2018-12-15T01:49:24.635Z,930.7
2018-12-15T01:49:37.551Z,930.7
2018-12-15T01:49:50.498Z,930.74
2018-12-15T01:50:03.501Z,930.75
2018-12-15T01:50:16.412Z,930.74
2018-12-15T01:50:29.341Z,930.75
2018-12-15T01:50:42.285Z,930.75
2018-12-15T01:50:54.836Z,930.72
2018-12-15T01:51:07.743Z,930.74
2018-12-15T01:51:20.699Z,930.77
2018-12-15T01:51:33.631Z,930.75
2018-12-15T01:51:46.564Z,930.78
2018-12-15T01:51:59.449Z,930.79
2018-12-15T01:52:12.413Z,930.77
2018-12-15T01:52:25.377Z,930.78
2018-12-15T01:52:38.339Z,930.78
2018-12-15T01:52:51.342Z,930.81
2018-12-15T01:53:04.259Z,930.79
2018-12-15T01:53:17.215Z,930.81
2018-12-15T01:53:30.221Z,930.77
2018-12-15T01:53:43.144Z,930.8
2018-12-15T01:53:56.103Z,930.82
2018-12-15T01:54:09.048Z,930.82
2018-12-15T01:54:21.557Z,930.82
2018-12-15T01:54:34.043Z,930.82
2018-12-15T01:54:46.521Z,930.86
2018-12-15T01:54:59.459Z,930.85
2018-12-15T01:55:12.440Z,930.84
2018-12-15T01:55:25.431Z,930.82
2018-12-15T01:55:38.396Z,930.8
2018-12-15T01:55:51.378Z,930.84
2018-12-15T01:56:04.444Z,930.85
2018-12-15T01:56:17.405Z,930.84
2018-12-15T01:56:30.328Z,930.83
2018-12-15T01:56:43.263Z,930.89
2018-12-15T01:56:56.249Z,930.83
2018-12-15T01:57:09.207Z,930.81
2018-12-15T01:57:22.115Z,930.82
2018-12-15T01:57:35.056Z,930.83
2018-12-15T01:57:47.963Z,930.83
2018-12-15T01:58:00.917Z,930.78
2018-12-15T01:58:13.910Z,930.83
2018-12-15T01:58:26.916Z,930.83
2018-12-15T01:58:39.874Z,930.83
2018-12-15T01:58:52.804Z,930.79
2018-12-15T01:59:05.800Z,930.8
2018-12-15T01:59:18.791Z,930.83
2018-12-15T01:59:31.738Z,930.82
2018-12-15T01:59:44.658Z,930.83
2018-12-15T01:59:57.657Z,930.81
2018-12-15T02:00:10.604Z,930.82
2018-12-15T02:00:23.537Z,930.84
2018-12-15T02:00:36.590Z,930.86
2018-12-15T02:00:49.522Z,930.85
2018-12-15T02:01:02.458Z,930.82
2018-12-15T02:01:15.414Z,930.82
2018-12-15T02:01:27.945Z,930.82
2018-12-15T02:01:40.888Z,930.84
2018-12-15T02:01:53.806Z,930.83
2018-12-15T02:02:06.699Z,930.78
2018-12-15T02:02:19.675Z,930.82
2018-12-15T02:02:32.645Z,930.82
2018-12-15T02:02:45.593Z,930.8
2018-12-15T02:02:58.572Z,930.8
2018-12-15T02:03:11.540Z,930.78
2018-12-15T02:03:24.513Z,930.79
2018-12-15T02:03:37.496Z,930.79
2018-12-15T02:03:50.424Z,930.78
2018-12-15T02:04:03.357Z,930.8
2018-12-15T02:04:16.293Z,930.81
2018-12-15T02:04:29.282Z,930.8
2018-12-15T02:04:42.188Z,930.83
2018-12-15T02:04:55.112Z,930.81
2018-12-15T02:05:08.090Z,930.83
2018-12-15T02:05:21.015Z,930.79
2018-12-15T02:05:33.993Z,930.76
2018-12-15T02:05:46.983Z,930.8
2018-12-15T02:05:59.969Z,930.82
2018-12-15T02:06:12.939Z,930.81
2018-12-15T02:06:26.241Z,930.83
2018-12-15T02:06:39.246Z,930.84
2018-12-15T02:06:52.167Z,930.81
2018-12-15T02:07:05.096Z,930.82
2018-12-15T02:07:18.124Z,930.81
2018-12-15T02:07:31.056Z,930.82
2018-12-15T02:07:44.133Z,930.8
2018-12-15T02:07:57.073Z,930.83
2018-12-15T02:08:10.049Z,930.8
2018-12-15T02:08:22.539Z,930.78
2018-12-15T02:08:35.452Z,930.78
2018-12-15T02:08:48.431Z,930.8
2018-12-15T02:09:01.427Z,930.81
2018-12-15T02:09:14.359Z,930.79
2018-12-15T02:09:27.322Z,930.81
2018-12-15T02:09:40.270Z,930.78
2018-12-15T02:09:53.140Z,930.79
2018-12-15T02:10:06.108Z,930.79
2018-12-15T02:10:18.602Z,930.79
2018-12-15T02:10:31.508Z,930.8
2018-12-15T02:10:44.447Z,930.81
2018-12-15T02:10:57.411Z,930.77
2018-12-15T02:11:10.344Z,930.81
2018-12-15T02:11:23.275Z,930.76
2018-12-15T02:11:36.944Z,930.77
2018-12-15T02:11:50.989Z,930.77
2018-12-15T02:12:03.937Z,930.79
2018-12-15T02:12:16.919Z,930.75
2018-12-15T02:12:29.869Z,930.79
2018-12-15T02:12:42.842Z,930.79
2018-12-15T02:12:55.810Z,930.81
2018-12-15T02:13:08.823Z,930.79
2018-12-15T02:13:21.761Z,930.81
2018-12-15T02:13:34.662Z,930.82
2018-12-15T02:13:47.584Z,930.83
2018-12-15T02:14:00.526Z,930.8
2018-12-15T02:14:13.474Z,930.79
2018-12-15T02:14:26.421Z,930.79
2018-12-15T02:14:39.398Z,930.82
2018-12-15T02:14:52.359Z,930.82
2018-12-15T02:15:05.260Z,930.83
2018-12-15T02:15:18.248Z,930.83
2018-12-15T02:15:31.217Z,930.85
2018-12-15T02:15:44.203Z,930.85
2018-12-15T02:15:57.126Z,930.84
2018-12-15T02:16:10.072Z,930.85
2018-12-15T02:16:23.070Z,930.87
2018-12-15T02:16:36.040Z,930.88
2018-12-15T02:16:48.994Z,930.85
2018-12-15T02:17:01.922Z,930.84
2018-12-15T02:17:14.910Z,930.86
2018-12-15T02:17:33.405Z,930.84
2018-12-15T02:17:46.536Z,930.85
2018-12-15T02:17:59.466Z,930.84
2018-12-15T02:18:12.386Z,930.83
2018-12-15T02:18:25.323Z,930.83
2018-12-15T02:18:38.258Z,930.87
2018-12-15T02:18:51.181Z,930.83
2018-12-15T02:19:04.115Z,930.85
2018-12-15T02:19:17.059Z,930.8
2018-12-15T02:19:30.052Z,930.85
2018-12-15T02:19:42.952Z,930.85
2018-12-15T02:19:55.901Z,930.83
2018-12-15T02:20:08.871Z,930.82
2018-12-15T02:20:21.875Z,930.82
2018-12-15T02:20:34.814Z,930.81
2018-12-15T02:20:47.713Z,930.84
2018-12-15T02:21:00.641Z,930.85
2018-12-15T02:21:13.543Z,930.83
2018-12-15T02:21:26.534Z,930.86
2018-12-15T02:21:39.514Z,930.83
2018-12-15T02:21:52.491Z,930.8
2018-12-15T02:22:05.459Z,930.81
2018-12-15T02:22:18.414Z,930.82
2018-12-15T02:22:31.355Z,930.78
2018-12-15T02:22:44.312Z,930.81
2018-12-15T02:22:57.263Z,930.79
2018-12-15T02:23:09.735Z,930.78
2018-12-15T02:23:22.282Z,930.78
2018-12-15T02:23:35.205Z,930.79
2018-12-15T02:23:48.219Z,930.79
2018-12-15T02:24:01.154Z,930.79
2018-12-15T02:24:14.061Z,930.76
2018-12-15T02:24:26.559Z,930.77
2018-12-15T02:24:39.489Z,930.75
2018-12-15T02:24:52.420Z,930.75
2018-12-15T02:25:05.419Z,930.75
2018-12-15T02:25:17.950Z,930.75
2018-12-15T02:25:30.847Z,930.78
2018-12-15T02:25:43.794Z,930.75
2018-12-15T02:25:56.723Z,930.76
2018-12-15T02:26:09.669Z,930.77
2018-12-15T02:26:22.600Z,930.77
2018-12-15T02:26:35.527Z,930.75
2018-12-15T02:26:49.218Z,930.78
2018-12-15T02:27:02.197Z,930.77
2018-12-15T02:27:15.143Z,930.76
2018-12-15T02:27:28.087Z,930.75
2018-12-15T02:27:41.030Z,930.79
2018-12-15T02:27:54.030Z,930.79
2018-12-15T02:28:06.984Z,930.75
2018-12-15T02:28:19.447Z,930.76
2018-12-15T02:28:32.376Z,930.78
2018-12-15T02:28:45.337Z,930.78
2018-12-15T02:28:58.243Z,930.81
2018-12-15T02:29:11.214Z,930.83
2018-12-15T02:29:24.171Z,930.81
2018-12-15T02:29:37.151Z,930.83
2018-12-15T02:29:50.091Z,930.81
2018-12-15T02:30:03.043Z,930.78
2018-12-15T02:30:16.032Z,930.79
2018-12-15T02:30:28.988Z,930.79
2018-12-15T02:30:41.939Z,930.79
2018-12-15T02:30:54.934Z,930.83
2018-12-15T02:31:07.920Z,930.82
2018-12-15T02:31:20.898Z,930.84
2018-12-15T02:31:33.959Z,930.83
2018-12-15T02:31:46.926Z,930.82
2018-12-15T02:31:59.920Z,930.83
2018-12-15T02:32:12.852Z,930.86
2018-12-15T02:32:25.822Z,930.87
2018-12-15T02:32:38.814Z,930.86
2018-12-15T02:32:51.746Z,930.89
2018-12-15T02:33:04.682Z,930.89
2018-12-15T02:33:17.624Z,930.86
2018-12-15T02:33:30.611Z,930.89
2018-12-15T02:33:43.534Z,930.86
2018-12-15T02:33:56.490Z,930.88
2018-12-15T02:34:09.421Z,930.87
2018-12-15T02:34:22.359Z,930.87
2018-12-15T02:34:35.311Z,930.89
2018-12-15T02:34:48.275Z,930.87
2018-12-15T02:35:01.239Z,930.88
2018-12-15T02:35:14.176Z,930.85
2018-12-15T02:35:27.134Z,930.86
2018-12-15T02:35:40.121Z,930.89
2018-12-15T02:35:53.126Z,930.88
2018-12-15T02:36:06.144Z,930.89
2018-12-15T02:36:19.104Z,930.9
2018-12-15T02:36:32.055Z,930.87
2018-12-15T02:36:45.326Z,930.88
2018-12-15T02:36:58.285Z,930.92
2018-12-15T02:37:11.258Z,930.89
2018-12-15T02:37:24.264Z,930.92
2018-12-15T02:37:36.759Z,930.88
2018-12-15T02:37:49.701Z,930.85
2018-12-15T02:38:02.663Z,930.87
2018-12-15T02:38:15.606Z,930.87
2018-12-15T02:38:28.551Z,930.9
2018-12-15T02:38:41.550Z,930.85
2018-12-15T02:38:54.496Z,930.88
2018-12-15T02:39:07.373Z,930.85
2018-12-15T02:39:20.285Z,930.88
2018-12-15T02:39:33.246Z,930.86
2018-12-15T02:39:46.155Z,930.89
2018-12-15T02:39:59.124Z,930.86
2018-12-15T02:40:12.122Z,930.87
2018-12-15T02:40:25.077Z,930.88
2018-12-15T02:40:38.116Z,930.85
2018-12-15T02:40:51.138Z,930.86
2018-12-15T02:41:04.120Z,930.86
2018-12-15T02:41:17.079Z,930.87
2018-12-15T02:41:30.032Z,930.86
2018-12-15T02:41:48.324Z,930.85
2018-12-15T02:42:01.241Z,930.86
2018-12-15T02:42:14.234Z,930.86
2018-12-15T02:42:27.203Z,930.87